Tobin, Arkansas
Current Conditions -  °F | °C
As of 12:56 PM on Saturday 25 Oct 2014 (Local Time) from KADF Reporting Station
Clear Clear  
Wind Chill: 80°   Ceiling: Unl
Heat Index: 82°   Visibility: 10mi
Dew Point: 65°   Wind: 12mph
Humidity: 60%   Direction: 240°WSW
Pressure: 30.11"   Gusts: NA
Location:  34.0586°N, 93.5318°W
Report Text: KADF 251756Z AUTO 24010KT 10SM CLR 27/18 A3011 RMK AO2 58015 T02660183 10266 20111 SLP209
Loading
Personal Weather Stations






























Interactive Weather Map
Tropical Storm Tracking
New forecast layout! Learn more

10-Day Weather Forecast

Advertisements
Track Severe Weather on mobile